Startpagina
METAR-TAF:

METAR-TAF

Vliegvelden :

Sofia, Bulgarije

Luchthaven Sofia

breedte: 42-39N, lengte: 023-23E, hoogte: 586 m

Actueel weer

Dit bericht is 30 minuten geleden gemaakt, om 11:30 UTC
Wind 8 kt uit het westen
Temperatuur 8°C
Vochtigheid 81%
Druk 1011 hPa
Zicht 10 km of meer
Verspreide wolken op 1600 ft
Geheel bewolkt op 2500 ft

METAR: LBSF 191130Z 28008KT 9999 SCT016 OVC025 08/05 Q1011 NOSIG

Tijdstip: 14:00 (12:00 UTC)

Verwachting

Dit bericht is 1 uur en het 0 minuten geleden gemaakt, om 11:00 UTC
Verwachting geldig van 19 om 12 UTC tot 20 om 12 UTC
Wind 8 kt uit het westnoordwesten
Zicht 10 km of meer
Verspreide wolken op 1500 ft
Geheel bewolkt op 3000 ft
Wijzigt naar
van 19 om 22 UTC tot 19 om 24 UTC
Geheel bewolkt op 1700 ft
regen
Tijdelijke
van 20 om 04 UTC tot 20 om 07 UTC
Zicht: 3000 m
Geheel bewolkt op 1000 ft
regen, sneeuw

TAF: LBSF 191100Z 1912/2012 30008KT 9999 SCT015 OVC030 BECMG 1922/1924 RA OVC017 TEMPO 2004/2007 3000 RASN OVC010

Waarnemingen en weersverwachtingen van meer dan 4000 vliegvelden (METAR en TAF).

De beschikbare stations zijn de gele en rode punten op de kaart.

Ga met uw muis naar het station om de naam te zien.

Klik dan om waarnemingen en weersverwachtingen te zien.

kaart wijzigen: klik op de groene knoppen met een zwart kruis om in te zoomen, op de groene knop met een streepje om uit te zoomen of op de groene pijlen voor aangrenzende kaarten.


METAR-TAF: